sensor_id;sensor_type;location;lat;lon;timestamp;pressure;altitude;pressure_sealevel;temperature;humidity
2268;BME280;11052;43.338;25.502;2023-04-10T00:02:14;100897.56;;;10.18;100.00
2268;BME280;11052;43.338;25.502;2023-04-10T00:04:41;100901.97;;;10.13;100.00
2268;BME280;11052;43.338;25.502;2023-04-10T00:07:10;100897.66;;;10.14;100.00
2268;BME280;11052;43.338;25.502;2023-04-10T00:09:37;100891.69;;;10.10;100.00
2268;BME280;11052;43.338;25.502;2023-04-10T00:12:04;100890.81;;;10.10;100.00
2268;BME280;11052;43.338;25.502;2023-04-10T00:14:32;100889.16;;;10.07;100.00
2268;BME280;11052;43.338;25.502;2023-04-10T00:16:59;100890.06;;;10.05;100.00
2268;BME280;11052;43.338;25.502;2023-04-10T00:19:26;100886.69;;;10.00;100.00
2268;BME280;11052;43.338;25.502;2023-04-10T00:21:54;100881.59;;;9.95;100.00
2268;BME280;11052;43.338;25.502;2023-04-10T00:24:23;100882.63;;;9.86;100.00
2268;BME280;11052;43.338;25.502;2023-04-10T00:26:50;100880.91;;;9.85;100.00
2268;BME280;11052;43.338;25.502;2023-04-10T00:29:17;100874.00;;;9.84;100.00
2268;BME280;11052;43.338;25.502;2023-04-10T00:31:44;100877.50;;;9.82;100.00
2268;BME280;11052;43.338;25.502;2023-04-10T00:34:11;100875.84;;;9.78;100.00
2268;BME280;11052;43.338;25.502;2023-04-10T00:36:38;100875.06;;;9.74;100.00
2268;BME280;11052;43.338;25.502;2023-04-10T00:39:05;100871.66;;;9.71;100.00
2268;BME280;11052;43.338;25.502;2023-04-10T00:41:34;100869.06;;;9.71;100.00
2268;BME280;11052;43.338;25.502;2023-04-10T00:44:01;100874.34;;;9.66;100.00
2268;BME280;11052;43.338;25.502;2023-04-10T00:46:30;100866.75;;;9.56;100.00
2268;BME280;11052;43.338;25.502;2023-04-10T00:48:59;100871.19;;;9.49;100.00
2268;BME280;11052;43.338;25.502;2023-04-10T00:51:26;100866.16;;;9.41;100.00
2268;BME280;11052;43.338;25.502;2023-04-10T00:53:53;100861.94;;;9.34;100.00
2268;BME280;11052;43.338;25.502;2023-04-10T00:56:20;100862.88;;;9.30;100.00
2268;BME280;11052;43.338;25.502;2023-04-10T00:58:50;100860.47;;;9.18;100.00
2268;BME280;11052;43.338;25.502;2023-04-10T01:01:18;100861.50;;;9.08;100.00
2268;BME280;11052;43.338;25.502;2023-04-10T01:03:45;100862.47;;;8.99;100.00
2268;BME280;11052;43.338;25.502;2023-04-10T01:06:20;100860.88;;;8.92;100.00
2268;BME280;11052;43.338;25.502;2023-04-10T01:08:55;100854.09;;;8.83;100.00
2268;BME280;11052;43.338;25.502;2023-04-10T01:11:38;100853.31;;;8.77;100.00
2268;BME280;11052;43.338;25.502;2023-04-10T01:14:17;100853.38;;;8.72;100.00
2268;BME280;11052;43.338;25.502;2023-04-10T01:16:51;100856.09;;;8.65;100.00
2268;BME280;11052;43.338;25.502;2023-04-10T01:19:26;100857.09;;;8.54;100.00
2268;BME280;11052;43.338;25.502;2023-04-10T01:21:58;100849.41;;;8.50;100.00
2268;BME280;11052;43.338;25.502;2023-04-10T01:24:39;100841.72;;;8.44;100.00
2268;BME280;11052;43.338;25.502;2023-04-10T01:27:19;100846.97;;;8.38;100.00
2268;BME280;11052;43.338;25.502;2023-04-10T01:29:55;100845.28;;;8.31;100.00
2268;BME280;11052;43.338;25.502;2023-04-10T01:32:23;100854.84;;;8.24;100.00
2268;BME280;11052;43.338;25.502;2023-04-10T01:34:54;100850.63;;;8.17;100.00
2268;BME280;11052;43.338;25.502;2023-04-10T01:37:26;100855.88;;;8.09;100.00
2268;BME280;11052;43.338;25.502;2023-04-10T01:39:58;100855.94;;;8.02;100.00
2268;BME280;11052;43.338;25.502;2023-04-10T01:42:43;100856.88;;;7.96;100.00
2268;BME280;11052;43.338;25.502;2023-04-10T01:45:17;100855.25;;;7.86;100.00
2268;BME280;11052;43.338;25.502;2023-04-10T01:47:46;100863.09;;;7.78;100.00
2268;BME280;11052;43.338;25.502;2023-04-10T01:50:14;100867.50;;;7.67;100.00
2268;BME280;11052;43.338;25.502;2023-04-10T01:52:43;100869.22;;;7.67;100.00
2268;BME280;11052;43.338;25.502;2023-04-10T01:55:11;100865.00;;;7.58;100.00
2268;BME280;11052;43.338;25.502;2023-04-10T01:57:38;100861.59;;;7.53;100.00
2268;BME280;11052;43.338;25.502;2023-04-10T02:00:06;100867.66;;;7.47;100.00
2268;BME280;11052;43.338;25.502;2023-04-10T02:02:35;100865.13;;;7.44;100.00
2268;BME280;11052;43.338;25.502;2023-04-10T02:05:03;100859.16;;;7.36;100.00
2268;BME280;11052;43.338;25.502;2023-04-10T02:07:35;100864.34;;;7.32;100.00
2268;BME280;11052;43.338;25.502;2023-04-10T02:10:09;100870.47;;;7.18;100.00
2268;BME280;11052;43.338;25.502;2023-04-10T02:12:39;100858.59;;;6.96;100.00
2268;BME280;11052;43.338;25.502;2023-04-10T02:15:08;100866.44;;;6.81;100.00
2268;BME280;11052;43.338;25.502;2023-04-10T02:17:38;100870.00;;;6.55;100.00
2268;BME280;11052;43.338;25.502;2023-04-10T02:20:07;100871.69;;;6.64;100.00
2268;BME280;11052;43.338;25.502;2023-04-10T02:22:35;100881.13;;;6.62;100.00
2268;BME280;11052;43.338;25.502;2023-04-10T02:25:04;100864.88;;;6.49;100.00
2268;BME280;11052;43.338;25.502;2023-04-10T02:27:33;100870.84;;;6.57;100.00
2268;BME280;11052;43.338;25.502;2023-04-10T02:30:00;100873.44;;;6.53;100.00
2268;BME280;11052;43.338;25.502;2023-04-10T02:32:28;100876.88;;;6.53;100.00
2268;BME280;11052;43.338;25.502;2023-04-10T02:34:56;100870.00;;;6.51;100.00
2268;BME280;11052;43.338;25.502;2023-04-10T02:37:23;100875.16;;;6.54;100.00
2268;BME280;11052;43.338;25.502;2023-04-10T02:39:51;100879.47;;;6.52;100.00
2268;BME280;11052;43.338;25.502;2023-04-10T02:42:19;100875.19;;;6.48;100.00
2268;BME280;11052;43.338;25.502;2023-04-10T02:44:46;100872.66;;;6.34;100.00
2268;BME280;11052;43.338;25.502;2023-04-10T02:47:14;100876.97;;;6.26;100.00
2268;BME280;11052;43.338;25.502;2023-04-10T02:49:43;100873.56;;;6.19;100.00
2268;BME280;11052;43.338;25.502;2023-04-10T02:52:11;100877.00;;;6.11;100.00
2268;BME280;11052;43.338;25.502;2023-04-10T02:54:38;100880.50;;;5.99;100.00
2268;BME280;11052;43.338;25.502;2023-04-10T02:57:06;100880.50;;;5.84;100.00
2268;BME280;11052;43.338;25.502;2023-04-10T02:59:33;100879.63;;;5.85;100.00
2268;BME280;11052;43.338;25.502;2023-04-10T03:02:00;100871.09;;;5.90;100.00
2268;BME280;11052;43.338;25.502;2023-04-10T03:04:27;100871.06;;;5.94;100.00
2268;BME280;11052;43.338;25.502;2023-04-10T03:06:54;100870.22;;;5.91;100.00
2268;BME280;11052;43.338;25.502;2023-04-10T03:09:23;100883.06;;;5.87;100.00
2268;BME280;11052;43.338;25.502;2023-04-10T03:11:50;100881.34;;;5.86;100.00
2268;BME280;11052;43.338;25.502;2023-04-10T03:14:17;100887.34;;;5.80;100.00
2268;BME280;11052;43.338;25.502;2023-04-10T03:16:44;100883.06;;;5.81;100.00
2268;BME280;11052;43.338;25.502;2023-04-10T03:19:12;100890.78;;;5.81;100.00
2268;BME280;11052;43.338;25.502;2023-04-10T03:21:39;100883.06;;;5.81;100.00
2268;BME280;11052;43.338;25.502;2023-04-10T03:24:06;100878.81;;;5.89;100.00
2268;BME280;11052;43.338;25.502;2023-04-10T03:26:35;100886.50;;;5.97;100.00
2268;BME280;11052;43.338;25.502;2023-04-10T03:29:02;100883.94;;;6.00;100.00
2268;BME280;11052;43.338;25.502;2023-04-10T03:31:29;100875.34;;;6.01;100.00
2268;BME280;11052;43.338;25.502;2023-04-10T03:33:56;100884.72;;;6.11;100.00
2268;BME280;11052;43.338;25.502;2023-04-10T03:36:23;100888.16;;;6.16;100.00
2268;BME280;11052;43.338;25.502;2023-04-10T03:38:51;100890.72;;;6.20;100.00
2268;BME280;11052;43.338;25.502;2023-04-10T03:41:19;100889.00;;;6.16;100.00
2268;BME280;11052;43.338;25.502;2023-04-10T03:43:47;100889.88;;;6.14;100.00
2268;BME280;11052;43.338;25.502;2023-04-10T03:46:14;100889.00;;;6.18;100.00
2268;BME280;11052;43.338;25.502;2023-04-10T03:48:41;100897.59;;;6.20;100.00
2268;BME280;11052;43.338;25.502;2023-04-10T03:51:09;100899.28;;;6.22;100.00
2268;BME280;11052;43.338;25.502;2023-04-10T03:53:36;100896.72;;;6.24;100.00
2268;BME280;11052;43.338;25.502;2023-04-10T03:56:03;100892.41;;;6.29;100.00
2268;BME280;11052;43.338;25.502;2023-04-10T03:58:30;100900.13;;;6.31;100.00
2268;BME280;11052;43.338;25.502;2023-04-10T04:00:59;100900.13;;;6.34;100.00
2268;BME280;11052;43.338;25.502;2023-04-10T04:03:26;100897.53;;;6.40;100.00
2268;BME280;11052;43.338;25.502;2023-04-10T04:05:53;100894.94;;;6.40;100.00
2268;BME280;11052;43.338;25.502;2023-04-10T04:08:20;100899.22;;;6.42;100.00
2268;BME280;11052;43.338;25.502;2023-04-10T04:10:48;100900.09;;;6.46;100.00
2268;BME280;11052;43.338;25.502;2023-04-10T04:13:15;100905.19;;;6.53;100.00
2268;BME280;11052;43.338;25.502;2023-04-10T04:15:42;100896.63;;;6.51;100.00
2268;BME280;11052;43.338;25.502;2023-04-10T04:18:10;100900.91;;;6.51;100.00
2268;BME280;11052;43.338;25.502;2023-04-10T04:20:38;100892.28;;;6.61;100.00
2268;BME280;11052;43.338;25.502;2023-04-10T04:23:05;100895.72;;;6.66;100.00
2268;BME280;11052;43.338;25.502;2023-04-10T04:25:32;100893.06;;;6.78;100.00
2268;BME280;11052;43.338;25.502;2023-04-10T04:27:59;100893.03;;;6.87;100.00
2268;BME280;11052;43.338;25.502;2023-04-10T04:30:26;100898.09;;;6.95;100.00
2268;BME280;11052;43.338;25.502;2023-04-10T04:32:53;100896.31;;;7.06;100.00
2268;BME280;11052;43.338;25.502;2023-04-10T04:35:22;100903.97;;;7.18;100.00
2268;BME280;11052;43.338;25.502;2023-04-10T04:37:49;100894.47;;;7.28;100.00
2268;BME280;11052;43.338;25.502;2023-04-10T04:40:16;100896.09;;;7.40;100.00
2268;BME280;11052;43.338;25.502;2023-04-10T04:42:43;100892.56;;;7.51;100.00
2268;BME280;11052;43.338;25.502;2023-04-10T04:45:10;100896.72;;;7.69;100.00
2268;BME280;11052;43.338;25.502;2023-04-10T04:47:38;100896.44;;;7.98;100.00
2268;BME280;11052;43.338;25.502;2023-04-10T04:50:07;100900.41;;;8.33;100.00
2268;BME280;11052;43.338;25.502;2023-04-10T04:52:36;100903.50;;;8.62;100.00
2268;BME280;11052;43.338;25.502;2023-04-10T04:55:03;100891.00;;;8.93;100.00
2268;BME280;11052;43.338;25.502;2023-04-10T04:57:30;100899.22;;;9.23;100.00
2268;BME280;11052;43.338;25.502;2023-04-10T04:59:57;100894.19;;;9.66;100.00
2268;BME280;11052;43.338;25.502;2023-04-10T05:02:25;100900.75;;;9.85;100.00
2268;BME280;11052;43.338;25.502;2023-04-10T05:04:52;100892.75;;;9.99;100.00
2268;BME280;11052;43.338;25.502;2023-04-10T05:07:19;100896.94;;;10.06;100.00
2268;BME280;11052;43.338;25.502;2023-04-10T05:09:47;100888.25;;;10.08;100.00
2268;BME280;11052;43.338;25.502;2023-04-10T05:12:15;100888.97;;;10.16;100.00
2268;BME280;11052;43.338;25.502;2023-04-10T05:14:42;100888.66;;;10.35;100.00
2268;BME280;11052;43.338;25.502;2023-04-10T05:17:09;100894.13;;;10.61;100.00
2268;BME280;11052;43.338;25.502;2023-04-10T05:19:36;100896.78;;;11.00;100.00
2268;BME280;11052;43.338;25.502;2023-04-10T05:22:03;100900.03;;;11.45;100.00
2268;BME280;11052;43.338;25.502;2023-04-10T05:24:30;100893.75;;;11.89;100.00
2268;BME280;11052;43.338;25.502;2023-04-10T05:26:59;100893.72;;;12.22;100.00
2268;BME280;11052;43.338;25.502;2023-04-10T05:29:26;100904.06;;;12.56;100.00
2268;BME280;11052;43.338;25.502;2023-04-10T05:31:53;100902.41;;;12.83;100.00
2268;BME280;11052;43.338;25.502;2023-04-10T05:34:20;100904.09;;;13.11;100.00
2268;BME280;11052;43.338;25.502;2023-04-10T05:36:47;100906.81;;;13.36;100.00
2268;BME280;11052;43.338;25.502;2023-04-10T05:39:15;100913.03;;;13.32;100.00
2268;BME280;11052;43.338;25.502;2023-04-10T05:41:42;100912.09;;;13.35;100.00
2268;BME280;11052;43.338;25.502;2023-04-10T05:44:10;100907.03;;;13.57;100.00
2268;BME280;11052;43.338;25.502;2023-04-10T05:46:37;100917.13;;;13.92;100.00
2268;BME280;11052;43.338;25.502;2023-04-10T05:49:04;100915.63;;;14.10;100.00
2268;BME280;11052;43.338;25.502;2023-04-10T05:51:31;100920.16;;;14.30;100.00
2268;BME280;11052;43.338;25.502;2023-04-10T05:53:59;100914.03;;;14.31;99.59
2268;BME280;11052;43.338;25.502;2023-04-10T05:56:26;100920.63;;;14.42;100.00
2268;BME280;11052;43.338;25.502;2023-04-10T05:58:53;100908.16;;;14.51;100.00
2268;BME280;11052;43.338;25.502;2023-04-10T06:01:21;100909.84;;;14.52;93.94
2268;BME280;11052;43.338;25.502;2023-04-10T06:03:48;100915.78;;;14.79;96.48
2268;BME280;11052;43.338;25.502;2023-04-10T06:06:16;100903.97;;;14.92;90.60
2268;BME280;11052;43.338;25.502;2023-04-10T06:08:43;100905.16;;;15.28;90.46
2268;BME280;11052;43.338;25.502;2023-04-10T06:11:10;100908.38;;;15.57;96.28
2268;BME280;11052;43.338;25.502;2023-04-10T06:13:37;100904.84;;;15.78;97.94
2268;BME280;11052;43.338;25.502;2023-04-10T06:16:05;100905.38;;;15.86;81.98
2268;BME280;11052;43.338;25.502;2023-04-10T06:18:33;100897.94;;;15.97;83.74
2268;BME280;11052;43.338;25.502;2023-04-10T06:21:01;100900.78;;;16.32;87.37
2268;BME280;11052;43.338;25.502;2023-04-10T06:23:28;100900.31;;;16.61;87.00
2268;BME280;11052;43.338;25.502;2023-04-10T06:25:55;100898.16;;;16.90;85.23
2268;BME280;11052;43.338;25.502;2023-04-10T06:28:22;100899.78;;;17.11;82.12
2268;BME280;11052;43.338;25.502;2023-04-10T06:30:49;100903.38;;;17.27;81.27
2268;BME280;11052;43.338;25.502;2023-04-10T06:33:17;100908.34;;;17.15;76.56
2268;BME280;11052;43.338;25.502;2023-04-10T06:35:45;100908.13;;;17.19;81.27
2268;BME280;11052;43.338;25.502;2023-04-10T06:38:12;100897.13;;;17.47;79.40
2268;BME280;11052;43.338;25.502;2023-04-10T06:40:40;100896.75;;;17.55;77.71
2268;BME280;11052;43.338;25.502;2023-04-10T06:43:07;100902.03;;;17.72;73.57
2268;BME280;11052;43.338;25.502;2023-04-10T06:45:34;100895.97;;;17.53;74.12
2268;BME280;11052;43.338;25.502;2023-04-10T06:48:01;100895.88;;;17.37;73.48
2268;BME280;11052;43.338;25.502;2023-04-10T06:50:28;100901.66;;;17.44;71.95
2268;BME280;11052;43.338;25.502;2023-04-10T06:52:57;100902.19;;;17.69;73.64
2268;BME280;11052;43.338;25.502;2023-04-10T06:55:24;100901.34;;;17.68;70.54
2268;BME280;11052;43.338;25.502;2023-04-10T06:57:51;100899.88;;;17.97;73.50
2268;BME280;11052;43.338;25.502;2023-04-10T07:00:19;100910.03;;;18.21;72.75
2268;BME280;11052;43.338;25.502;2023-04-10T07:02:46;100910.00;;;17.88;65.14
2268;BME280;11052;43.338;25.502;2023-04-10T07:05:13;100909.00;;;17.90;71.66
2268;BME280;11052;43.338;25.502;2023-04-10T07:07:41;100907.25;;;18.24;70.96
2268;BME280;11052;43.338;25.502;2023-04-10T07:10:10;100911.72;;;18.55;69.66
2268;BME280;11052;43.338;25.502;2023-04-10T07:12:38;100905.16;;;18.63;64.73
2268;BME280;11052;43.338;25.502;2023-04-10T07:15:06;100911.13;;;18.83;64.42
2268;BME280;11052;43.338;25.502;2023-04-10T07:17:33;100910.84;;;18.72;63.29
2268;BME280;11052;43.338;25.502;2023-04-10T07:20:00;100905.28;;;18.78;64.67
2268;BME280;11052;43.338;25.502;2023-04-10T07:22:27;100898.50;;;18.89;68.28
2268;BME280;11052;43.338;25.502;2023-04-10T07:24:55;100897.06;;;18.99;64.69
2268;BME280;11052;43.338;25.502;2023-04-10T07:27:25;100905.00;;;19.14;65.41
2268;BME280;11052;43.338;25.502;2023-04-10T07:29:54;100910.28;;;18.49;62.02
2268;BME280;11052;43.338;25.502;2023-04-10T07:32:21;100906.22;;;18.26;62.93
2268;BME280;11052;43.338;25.502;2023-04-10T07:34:48;100902.19;;;18.04;60.82
2268;BME280;11052;43.338;25.502;2023-04-10T07:37:16;100901.81;;;18.27;60.16
2268;BME280;11052;43.338;25.502;2023-04-10T07:39:43;100907.03;;;18.44;62.98
2268;BME280;11052;43.338;25.502;2023-04-10T07:42:10;100893.72;;;17.98;61.25
2268;BME280;11052;43.338;25.502;2023-04-10T07:44:39;100887.78;;;17.42;62.18
2268;BME280;11052;43.338;25.502;2023-04-10T07:47:06;100897.00;;;17.14;61.79
2268;BME280;11052;43.338;25.502;2023-04-10T07:49:33;100894.47;;;17.13;65.70
2268;BME280;11052;43.338;25.502;2023-04-10T07:52:01;100884.94;;;17.29;66.27
2268;BME280;11052;43.338;25.502;2023-04-10T07:54:30;100886.47;;;17.69;67.73
2268;BME280;11052;43.338;25.502;2023-04-10T07:56:58;100877.59;;;17.89;65.19
2268;BME280;11052;43.338;25.502;2023-04-10T07:59:26;100879.91;;;17.95;68.26
2268;BME280;11052;43.338;25.502;2023-04-10T08:01:55;100880.22;;;17.72;66.09
2268;BME280;11052;43.338;25.502;2023-04-10T08:04:22;100871.53;;;17.52;65.43
2268;BME280;11052;43.338;25.502;2023-04-10T08:06:49;100884.13;;;17.10;66.86
2268;BME280;11052;43.338;25.502;2023-04-10T08:09:16;100876.72;;;16.82;65.07
2268;BME280;11052;43.338;25.502;2023-04-10T08:11:43;100869.91;;;16.59;67.88
2268;BME280;11052;43.338;25.502;2023-04-10T08:14:10;100865.28;;;16.64;66.55
2268;BME280;11052;43.338;25.502;2023-04-10T08:16:38;100866.28;;;16.61;68.18
2268;BME280;11052;43.338;25.502;2023-04-10T08:19:07;100864.44;;;16.63;69.32
2268;BME280;11052;43.338;25.502;2023-04-10T08:21:34;100864.84;;;16.75;69.15
2268;BME280;11052;43.338;25.502;2023-04-10T08:24:02;100867.75;;;17.23;67.63
2268;BME280;11052;43.338;25.502;2023-04-10T08:26:29;100859.44;;;17.50;68.01
2268;BME280;11052;43.338;25.502;2023-04-10T08:28:58;100863.34;;;17.41;64.40
2268;BME280;11052;43.338;25.502;2023-04-10T08:31:26;100867.09;;;17.01;67.53
2268;BME280;11052;43.338;25.502;2023-04-10T08:33:53;100862.09;;;16.57;66.66
2268;BME280;11052;43.338;25.502;2023-04-10T08:36:22;100860.69;;;16.31;68.58
2268;BME280;11052;43.338;25.502;2023-04-10T08:38:49;100851.66;;;16.95;69.97
2268;BME280;11052;43.338;25.502;2023-04-10T08:41:18;100849.19;;;17.45;66.91
2268;BME280;11052;43.338;25.502;2023-04-10T08:43:45;100840.63;;;17.42;65.29
2268;BME280;11052;43.338;25.502;2023-04-10T08:46:14;100838.31;;;17.18;64.42
2268;BME280;11052;43.338;25.502;2023-04-10T08:48:46;100842.44;;;17.05;66.01
2268;BME280;11052;43.338;25.502;2023-04-10T08:51:17;100832.41;;;16.96;63.60
2268;BME280;11052;43.338;25.502;2023-04-10T08:53:50;100835.72;;;16.99;66.43
2268;BME280;11052;43.338;25.502;2023-04-10T08:56:17;100834.50;;;17.07;65.40
2268;BME280;11052;43.338;25.502;2023-04-10T08:58:45;100825.69;;;17.26;66.12
2268;BME280;11052;43.338;25.502;2023-04-10T09:01:12;100817.78;;;17.44;60.09
2268;BME280;11052;43.338;25.502;2023-04-10T09:03:40;100814.41;;;17.42;60.79
2268;BME280;11052;43.338;25.502;2023-04-10T09:06:08;100805.78;;;17.40;63.95
2268;BME280;11052;43.338;25.502;2023-04-10T09:08:35;100799.16;;;17.32;65.06
2268;BME280;11052;43.338;25.502;2023-04-10T09:11:04;100802.47;;;17.19;63.23
2268;BME280;11052;43.338;25.502;2023-04-10T09:13:35;100801.22;;;17.09;63.26
2268;BME280;11052;43.338;25.502;2023-04-10T09:16:04;100796.84;;;17.26;66.96
2268;BME280;11052;43.338;25.502;2023-04-10T09:18:44;100788.03;;;17.62;63.24
2268;BME280;11052;43.338;25.502;2023-04-10T09:21:13;100776.31;;;17.34;60.40
2268;BME280;11052;43.338;25.502;2023-04-10T09:23:42;100776.50;;;17.31;62.54
2268;BME280;11052;43.338;25.502;2023-04-10T09:26:25;100778.94;;;17.34;62.27
2268;BME280;11052;43.338;25.502;2023-04-10T09:29:00;100774.75;;;17.32;62.20
2268;BME280;11052;43.338;25.502;2023-04-10T09:31:30;100768.09;;;17.25;63.75
2268;BME280;11052;43.338;25.502;2023-04-10T09:34:11;100770.75;;;16.89;62.05
2268;BME280;11052;43.338;25.502;2023-04-10T09:36:39;100759.53;;;16.49;64.15
2268;BME280;11052;43.338;25.502;2023-04-10T09:39:08;100758.31;;;16.56;66.96
2268;BME280;11052;43.338;25.502;2023-04-10T09:41:48;100749.47;;;16.78;67.36
2268;BME280;11052;43.338;25.502;2023-04-10T09:44:18;100752.06;;;17.14;66.72
2268;BME280;11052;43.338;25.502;2023-04-10T09:46:45;100752.78;;;17.17;64.39
2268;BME280;11052;43.338;25.502;2023-04-10T09:49:14;100740.53;;;16.64;65.11
2268;BME280;11052;43.338;25.502;2023-04-10T09:51:41;100746.09;;;16.76;65.86
2268;BME280;11052;43.338;25.502;2023-04-10T09:54:09;100735.06;;;16.50;63.02
2268;BME280;11052;43.338;25.502;2023-04-10T09:56:38;100735.13;;;16.49;64.08
2268;BME280;11052;43.338;25.502;2023-04-10T09:59:06;100738.59;;;16.49;65.67
2268;BME280;11052;43.338;25.502;2023-04-10T10:01:34;100730.69;;;16.69;64.77
2268;BME280;11052;43.338;25.502;2023-04-10T10:04:03;100728.06;;;16.69;64.01
2268;BME280;11052;43.338;25.502;2023-04-10T10:06:31;100719.47;;;16.30;65.41
2268;BME280;11052;43.338;25.502;2023-04-10T10:09:02;100737.66;;;16.33;64.97
2268;BME280;11052;43.338;25.502;2023-04-10T10:11:32;100721.44;;;16.44;65.34
2268;BME280;11052;43.338;25.502;2023-04-10T10:14:02;100715.94;;;16.31;63.94
2268;BME280;11052;43.338;25.502;2023-04-10T10:16:36;100709.44;;;16.39;63.35
2268;BME280;11052;43.338;25.502;2023-04-10T10:19:08;100717.38;;;16.55;63.41
2268;BME280;11052;43.338;25.502;2023-04-10T10:21:37;100710.00;;;16.46;59.07
2268;BME280;11052;43.338;25.502;2023-04-10T10:24:07;100704.56;;;16.32;61.72
2268;BME280;11052;43.338;25.502;2023-04-10T10:26:37;100692.41;;;16.31;62.34
2268;BME280;11052;43.338;25.502;2023-04-10T10:29:06;100699.13;;;15.99;62.46
2268;BME280;11052;43.338;25.502;2023-04-10T10:31:37;100691.56;;;16.12;64.23
2268;BME280;11052;43.338;25.502;2023-04-10T10:34:04;100695.66;;;15.98;63.19
2268;BME280;11052;43.338;25.502;2023-04-10T10:36:34;100692.19;;;16.17;60.70
2268;BME280;11052;43.338;25.502;2023-04-10T10:39:17;100687.88;;;16.16;58.54
2268;BME280;11052;43.338;25.502;2023-04-10T10:41:55;100686.97;;;15.98;60.44
2268;BME280;11052;43.338;25.502;2023-04-10T10:44:31;100695.31;;;15.87;58.61
2268;BME280;11052;43.338;25.502;2023-04-10T10:47:08;100686.53;;;15.69;61.18
2268;BME280;11052;43.338;25.502;2023-04-10T10:49:52;100683.66;;;15.57;61.97
2268;BME280;11052;43.338;25.502;2023-04-10T10:52:44;100685.19;;;15.40;64.35
2268;BME280;11052;43.338;25.502;2023-04-10T10:55:30;100685.41;;;15.36;64.12
2268;BME280;11052;43.338;25.502;2023-04-10T10:58:00;100679.00;;;15.43;63.89
2268;BME280;11052;43.338;25.502;2023-04-10T11:03:30;100679.19;;;15.59;59.45
2268;BME280;11052;43.338;25.502;2023-04-10T11:05:58;100670.91;;;15.68;61.57
2268;BME280;11052;43.338;25.502;2023-04-10T11:08:41;100675.78;;;15.76;59.20
2268;BME280;11052;43.338;25.502;2023-04-10T11:11:13;100670.56;;;15.76;60.52
2268;BME280;11052;43.338;25.502;2023-04-10T11:16:42;100671.34;;;15.59;61.55
2268;BME280;11052;43.338;25.502;2023-04-10T11:19:11;100682.00;;;15.34;63.22
2268;BME280;11052;43.338;25.502;2023-04-10T11:22:04;100670.06;;;15.28;67.93
2268;BME280;11052;43.338;25.502;2023-04-10T11:24:55;100663.06;;;15.29;66.53
2268;BME280;11052;43.338;25.502;2023-04-10T11:27:43;100654.50;;;15.46;70.47
2268;BME280;11052;43.338;25.502;2023-04-10T11:30:31;100660.19;;;15.35;69.71
2268;BME280;11052;43.338;25.502;2023-04-10T11:32:59;100655.03;;;15.33;70.13
2268;BME280;11052;43.338;25.502;2023-04-10T11:35:29;100650.34;;;15.21;71.92
2268;BME280;11052;43.338;25.502;2023-04-10T11:38:14;100651.63;;;15.31;71.29
2268;BME280;11052;43.338;25.502;2023-04-10T11:40:58;100649.75;;;15.15;70.83
2268;BME280;11052;43.338;25.502;2023-04-10T11:43:26;100651.06;;;15.04;72.88
2268;BME280;11052;43.338;25.502;2023-04-10T11:46:00;100650.88;;;15.09;72.21
2268;BME280;11052;43.338;25.502;2023-04-10T11:48:28;100649.31;;;15.25;72.87
2268;BME280;11052;43.338;25.502;2023-04-10T11:50:56;100643.34;;;15.42;70.83
2268;BME280;11052;43.338;25.502;2023-04-10T11:53:26;100642.22;;;15.66;72.60
2268;BME280;11052;43.338;25.502;2023-04-10T11:55:54;100641.03;;;15.92;73.30
2268;BME280;11052;43.338;25.502;2023-04-10T11:58:23;100628.66;;;16.15;66.36
2268;BME280;11052;43.338;25.502;2023-04-10T12:00:57;100629.84;;;16.26;65.98
2268;BME280;11052;43.338;25.502;2023-04-10T12:03:35;100623.47;;;16.32;64.14
2268;BME280;11052;43.338;25.502;2023-04-10T12:06:06;100615.00;;;16.44;63.44
2268;BME280;11052;43.338;25.502;2023-04-10T12:08:35;100608.75;;;16.64;64.06
2268;BME280;11052;43.338;25.502;2023-04-10T12:11:03;100602.94;;;16.76;64.36
2268;BME280;11052;43.338;25.502;2023-04-10T12:13:31;100598.47;;;16.78;64.61
2268;BME280;11052;43.338;25.502;2023-04-10T12:16:00;100595.84;;;16.95;61.67
2268;BME280;11052;43.338;25.502;2023-04-10T12:18:28;100605.47;;;16.95;62.39
2268;BME280;11052;43.338;25.502;2023-04-10T12:20:56;100604.22;;;17.02;61.90
2268;BME280;11052;43.338;25.502;2023-04-10T12:23:27;100603.78;;;16.94;61.88
2268;BME280;11052;43.338;25.502;2023-04-10T12:26:06;100597.38;;;16.99;61.64
2268;BME280;11052;43.338;25.502;2023-04-10T12:28:35;100593.25;;;16.78;60.50
2268;BME280;11052;43.338;25.502;2023-04-10T12:31:02;100590.84;;;16.74;60.75
2268;BME280;11052;43.338;25.502;2023-04-10T12:33:29;100576.31;;;16.68;60.53
2268;BME280;11052;43.338;25.502;2023-04-10T12:35:58;100576.00;;;16.74;60.55
2268;BME280;11052;43.338;25.502;2023-04-10T12:38:40;100580.31;;;16.75;60.55
2268;BME280;11052;43.338;25.502;2023-04-10T12:41:08;100575.97;;;16.39;60.84
2268;BME280;11052;43.338;25.502;2023-04-10T12:43:37;100571.81;;;16.18;62.90
2268;BME280;11052;43.338;25.502;2023-04-10T12:46:05;100569.88;;;15.86;69.74
2268;BME280;11052;43.338;25.502;2023-04-10T12:48:33;100563.44;;;15.57;69.45
2268;BME280;11052;43.338;25.502;2023-04-10T12:51:00;100570.75;;;15.49;69.16
2268;BME280;11052;43.338;25.502;2023-04-10T12:53:28;100562.00;;;15.68;69.11
2268;BME280;11052;43.338;25.502;2023-04-10T12:55:58;100565.09;;;15.77;68.31
2268;BME280;11052;43.338;25.502;2023-04-10T12:58:26;100560.44;;;15.64;68.15
2268;BME280;11052;43.338;25.502;2023-04-10T13:00:56;100555.91;;;15.68;67.39
2268;BME280;11052;43.338;25.502;2023-04-10T13:03:23;100554.50;;;15.80;68.80
2268;BME280;11052;43.338;25.502;2023-04-10T13:05:51;100553.66;;;15.79;66.07
2268;BME280;11052;43.338;25.502;2023-04-10T13:08:18;100547.91;;;15.90;65.11